sensor_id;sensor_type;location;lat;lon;timestamp;P1;durP1;ratioP1;P2;durP2;ratioP2
5475;SDS011;2760;50.000;9.194;2023-08-06T00:00:29;8.30;;;3.30;;
5475;SDS011;2760;50.000;9.194;2023-08-06T00:02:56;6.33;;;4.20;;
5475;SDS011;2760;50.000;9.194;2023-08-06T00:05:24;14.17;;;4.50;;
5475;SDS011;2760;50.000;9.194;2023-08-06T00:07:51;5.43;;;4.13;;
5475;SDS011;2760;50.000;9.194;2023-08-06T00:10:18;5.20;;;4.23;;
5475;SDS011;2760;50.000;9.194;2023-08-06T00:12:45;5.07;;;4.10;;
5475;SDS011;2760;50.000;9.194;2023-08-06T00:15:13;5.50;;;4.83;;
5475;SDS011;2760;50.000;9.194;2023-08-06T00:17:40;5.50;;;4.67;;
5475;SDS011;2760;50.000;9.194;2023-08-06T00:20:08;5.03;;;4.47;;
5475;SDS011;2760;50.000;9.194;2023-08-06T00:22:37;4.57;;;4.17;;
5475;SDS011;2760;50.000;9.194;2023-08-06T00:25:05;4.93;;;4.43;;
5475;SDS011;2760;50.000;9.194;2023-08-06T00:27:32;4.33;;;3.93;;
5475;SDS011;2760;50.000;9.194;2023-08-06T00:30:00;5.23;;;4.20;;
5475;SDS011;2760;50.000;9.194;2023-08-06T00:32:28;5.90;;;4.50;;
5475;SDS011;2760;50.000;9.194;2023-08-06T00:34:55;4.60;;;4.20;;
5475;SDS011;2760;50.000;9.194;2023-08-06T00:42:49;8.63;;;4.53;;
5475;SDS011;2760;50.000;9.194;2023-08-06T00:45:16;3.83;;;3.53;;
5475;SDS011;2760;50.000;9.194;2023-08-06T00:47:44;4.50;;;4.10;;
5475;SDS011;2760;50.000;9.194;2023-08-06T00:50:11;6.13;;;4.43;;
5475;SDS011;2760;50.000;9.194;2023-08-06T00:52:38;4.53;;;4.13;;
5475;SDS011;2760;50.000;9.194;2023-08-06T00:55:05;7.23;;;4.07;;
5475;SDS011;2760;50.000;9.194;2023-08-06T00:57:33;8.57;;;4.87;;
5475;SDS011;2760;50.000;9.194;2023-08-06T01:00:02;8.40;;;4.53;;
5475;SDS011;2760;50.000;9.194;2023-08-06T01:02:30;4.30;;;3.90;;
5475;SDS011;2760;50.000;9.194;2023-08-06T01:04:57;4.10;;;3.30;;
5475;SDS011;2760;50.000;9.194;2023-08-06T01:07:28;6.23;;;3.87;;
5475;SDS011;2760;50.000;9.194;2023-08-06T01:10:16;4.30;;;3.90;;
5475;SDS011;2760;50.000;9.194;2023-08-06T01:12:55;4.17;;;3.87;;
5475;SDS011;2760;50.000;9.194;2023-08-06T01:15:30;5.10;;;4.30;;
5475;SDS011;2760;50.000;9.194;2023-08-06T01:18:02;5.27;;;3.90;;
5475;SDS011;2760;50.000;9.194;2023-08-06T01:20:31;4.27;;;3.90;;
5475;SDS011;2760;50.000;9.194;2023-08-06T01:22:58;4.37;;;3.77;;
5475;SDS011;2760;50.000;9.194;2023-08-06T01:25:26;7.40;;;4.70;;
5475;SDS011;2760;50.000;9.194;2023-08-06T01:28:04;8.30;;;3.90;;
5475;SDS011;2760;50.000;9.194;2023-08-06T01:30:37;7.10;;;4.20;;
5475;SDS011;2760;50.000;9.194;2023-08-06T01:33:08;4.70;;;3.93;;
5475;SDS011;2760;50.000;9.194;2023-08-06T01:35:42;4.50;;;3.57;;
5475;SDS011;2760;50.000;9.194;2023-08-06T01:40:37;4.10;;;3.70;;
5475;SDS011;2760;50.000;9.194;2023-08-06T01:43:04;4.57;;;4.17;;
5475;SDS011;2760;50.000;9.194;2023-08-06T01:45:31;6.70;;;4.20;;
5475;SDS011;2760;50.000;9.194;2023-08-06T01:47:59;5.60;;;3.60;;
5475;SDS011;2760;50.000;9.194;2023-08-06T01:50:26;4.40;;;3.80;;
5475;SDS011;2760;50.000;9.194;2023-08-06T01:52:54;8.43;;;4.30;;
5475;SDS011;2760;50.000;9.194;2023-08-06T01:55:21;4.10;;;3.73;;
5475;SDS011;2760;50.000;9.194;2023-08-06T01:57:48;3.67;;;3.37;;
5475;SDS011;2760;50.000;9.194;2023-08-06T02:00:15;5.00;;;4.23;;
5475;SDS011;2760;50.000;9.194;2023-08-06T02:02:43;11.53;;;4.23;;
5475;SDS011;2760;50.000;9.194;2023-08-06T02:05:10;6.00;;;4.37;;
5475;SDS011;2760;50.000;9.194;2023-08-06T02:07:38;9.30;;;4.07;;
5475;SDS011;2760;50.000;9.194;2023-08-06T02:10:08;5.83;;;4.37;;
5475;SDS011;2760;50.000;9.194;2023-08-06T02:12:35;4.33;;;3.93;;
5475;SDS011;2760;50.000;9.194;2023-08-06T02:15:03;6.50;;;3.97;;
5475;SDS011;2760;50.000;9.194;2023-08-06T02:17:31;3.93;;;3.60;;
5475;SDS011;2760;50.000;9.194;2023-08-06T02:19:58;5.50;;;3.67;;
5475;SDS011;2760;50.000;9.194;2023-08-06T02:22:26;9.30;;;3.50;;
5475;SDS011;2760;50.000;9.194;2023-08-06T02:24:53;4.63;;;3.33;;
5475;SDS011;2760;50.000;9.194;2023-08-06T02:27:22;10.33;;;3.80;;
5475;SDS011;2760;50.000;9.194;2023-08-06T02:29:49;4.37;;;3.87;;
5475;SDS011;2760;50.000;9.194;2023-08-06T02:32:16;5.10;;;4.40;;
5475;SDS011;2760;50.000;9.194;2023-08-06T02:34:43;4.43;;;4.10;;
5475;SDS011;2760;50.000;9.194;2023-08-06T02:37:10;4.47;;;4.07;;
5475;SDS011;2760;50.000;9.194;2023-08-06T02:39:38;4.73;;;3.90;;
5475;SDS011;2760;50.000;9.194;2023-08-06T02:42:06;5.93;;;5.40;;
5475;SDS011;2760;50.000;9.194;2023-08-06T02:44:35;5.57;;;3.60;;
5475;SDS011;2760;50.000;9.194;2023-08-06T02:47:04;4.37;;;3.97;;
5475;SDS011;2760;50.000;9.194;2023-08-06T02:49:31;5.03;;;4.27;;
5475;SDS011;2760;50.000;9.194;2023-08-06T02:51:58;6.30;;;4.10;;
5475;SDS011;2760;50.000;9.194;2023-08-06T02:54:25;5.23;;;4.20;;
5475;SDS011;2760;50.000;9.194;2023-08-06T02:56:53;9.83;;;4.70;;
5475;SDS011;2760;50.000;9.194;2023-08-06T02:59:25;7.87;;;4.00;;
5475;SDS011;2760;50.000;9.194;2023-08-06T03:02:06;5.40;;;4.10;;
5475;SDS011;2760;50.000;9.194;2023-08-06T03:04:59;4.60;;;4.10;;
5475;SDS011;2760;50.000;9.194;2023-08-06T03:07:31;4.60;;;4.20;;
5475;SDS011;2760;50.000;9.194;2023-08-06T03:10:07;6.83;;;3.77;;
5475;SDS011;2760;50.000;9.194;2023-08-06T03:12:35;4.23;;;3.83;;
5475;SDS011;2760;50.000;9.194;2023-08-06T03:15:04;6.57;;;3.83;;
5475;SDS011;2760;50.000;9.194;2023-08-06T03:17:33;7.63;;;4.03;;
5475;SDS011;2760;50.000;9.194;2023-08-06T03:20:01;4.57;;;4.03;;
5475;SDS011;2760;50.000;9.194;2023-08-06T03:22:30;4.67;;;3.97;;
5475;SDS011;2760;50.000;9.194;2023-08-06T03:24:57;13.60;;;4.87;;
5475;SDS011;2760;50.000;9.194;2023-08-06T03:27:25;4.90;;;4.40;;
5475;SDS011;2760;50.000;9.194;2023-08-06T03:29:52;6.60;;;4.40;;
5475;SDS011;2760;50.000;9.194;2023-08-06T03:32:22;4.80;;;4.10;;
5475;SDS011;2760;50.000;9.194;2023-08-06T03:34:52;5.70;;;4.00;;
5475;SDS011;2760;50.000;9.194;2023-08-06T03:37:21;4.97;;;4.23;;
5475;SDS011;2760;50.000;9.194;2023-08-06T03:39:50;13.17;;;4.57;;
5475;SDS011;2760;50.000;9.194;2023-08-06T03:42:18;4.53;;;4.13;;
5475;SDS011;2760;50.000;9.194;2023-08-06T03:44:45;6.20;;;3.80;;
5475;SDS011;2760;50.000;9.194;2023-08-06T03:47:13;4.60;;;4.07;;
5475;SDS011;2760;50.000;9.194;2023-08-06T03:49:41;6.30;;;3.97;;
5475;SDS011;2760;50.000;9.194;2023-08-06T03:52:10;12.63;;;4.00;;
5475;SDS011;2760;50.000;9.194;2023-08-06T03:54:37;4.90;;;3.83;;
5475;SDS011;2760;50.000;9.194;2023-08-06T03:57:05;5.03;;;4.37;;
5475;SDS011;2760;50.000;9.194;2023-08-06T03:59:32;6.13;;;3.23;;
5475;SDS011;2760;50.000;9.194;2023-08-06T04:02:00;6.37;;;4.20;;
5475;SDS011;2760;50.000;9.194;2023-08-06T04:04:27;5.33;;;3.70;;
5475;SDS011;2760;50.000;9.194;2023-08-06T04:06:54;4.50;;;4.00;;
5475;SDS011;2760;50.000;9.194;2023-08-06T04:09:23;3.30;;;3.00;;
5475;SDS011;2760;50.000;9.194;2023-08-06T04:11:50;4.07;;;3.27;;
5475;SDS011;2760;50.000;9.194;2023-08-06T04:14:17;3.43;;;3.07;;
5475;SDS011;2760;50.000;9.194;2023-08-06T04:16:44;3.57;;;3.27;;
5475;SDS011;2760;50.000;9.194;2023-08-06T04:19:11;4.23;;;2.80;;
5475;SDS011;2760;50.000;9.194;2023-08-06T04:21:40;3.30;;;2.83;;
5475;SDS011;2760;50.000;9.194;2023-08-06T04:24:07;6.93;;;3.40;;
5475;SDS011;2760;50.000;9.194;2023-08-06T04:26:36;5.60;;;2.90;;
5475;SDS011;2760;50.000;9.194;2023-08-06T04:29:03;3.17;;;2.70;;
5475;SDS011;2760;50.000;9.194;2023-08-06T04:31:32;2.80;;;2.60;;
5475;SDS011;2760;50.000;9.194;2023-08-06T04:34:00;3.10;;;2.57;;
5475;SDS011;2760;50.000;9.194;2023-08-06T04:36:27;3.50;;;2.73;;
5475;SDS011;2760;50.000;9.194;2023-08-06T04:38:54;5.80;;;3.07;;
5475;SDS011;2760;50.000;9.194;2023-08-06T04:41:21;4.80;;;3.10;;
5475;SDS011;2760;50.000;9.194;2023-08-06T04:43:50;4.67;;;3.30;;
5475;SDS011;2760;50.000;9.194;2023-08-06T04:46:17;5.10;;;2.50;;
5475;SDS011;2760;50.000;9.194;2023-08-06T04:48:44;2.87;;;2.33;;
5475;SDS011;2760;50.000;9.194;2023-08-06T04:51:11;4.40;;;2.87;;
5475;SDS011;2760;50.000;9.194;2023-08-06T04:53:40;3.93;;;2.67;;
5475;SDS011;2760;50.000;9.194;2023-08-06T04:56:07;4.97;;;2.20;;
5475;SDS011;2760;50.000;9.194;2023-08-06T04:58:34;5.30;;;2.90;;
5475;SDS011;2760;50.000;9.194;2023-08-06T05:01:03;5.90;;;2.87;;
5475;SDS011;2760;50.000;9.194;2023-08-06T05:03:30;3.23;;;2.90;;
5475;SDS011;2760;50.000;9.194;2023-08-06T05:05:57;4.30;;;2.73;;
5475;SDS011;2760;50.000;9.194;2023-08-06T05:08:24;2.73;;;2.53;;
5475;SDS011;2760;50.000;9.194;2023-08-06T05:10:52;2.93;;;2.63;;
5475;SDS011;2760;50.000;9.194;2023-08-06T05:13:19;5.60;;;3.50;;
5475;SDS011;2760;50.000;9.194;2023-08-06T05:15:46;6.80;;;3.03;;
5475;SDS011;2760;50.000;9.194;2023-08-06T05:18:15;4.00;;;2.57;;
5475;SDS011;2760;50.000;9.194;2023-08-06T05:20:42;4.97;;;2.90;;
5475;SDS011;2760;50.000;9.194;2023-08-06T05:23:09;5.07;;;3.23;;
5475;SDS011;2760;50.000;9.194;2023-08-06T05:25:37;5.67;;;3.37;;
5475;SDS011;2760;50.000;9.194;2023-08-06T05:28:05;3.53;;;2.73;;
5475;SDS011;2760;50.000;9.194;2023-08-06T05:30:32;6.10;;;3.43;;
5475;SDS011;2760;50.000;9.194;2023-08-06T05:33:02;8.40;;;3.77;;
5475;SDS011;2760;50.000;9.194;2023-08-06T05:35:31;4.67;;;3.07;;
5475;SDS011;2760;50.000;9.194;2023-08-06T05:43:21;3.13;;;2.83;;
5475;SDS011;2760;50.000;9.194;2023-08-06T05:45:49;5.30;;;3.40;;
5475;SDS011;2760;50.000;9.194;2023-08-06T05:48:16;8.97;;;3.53;;
5475;SDS011;2760;50.000;9.194;2023-08-06T05:50:45;5.63;;;4.10;;
5475;SDS011;2760;50.000;9.194;2023-08-06T05:53:13;3.80;;;3.50;;
5475;SDS011;2760;50.000;9.194;2023-08-06T05:55:40;4.63;;;3.20;;
5475;SDS011;2760;50.000;9.194;2023-08-06T05:58:07;3.70;;;3.00;;
5475;SDS011;2760;50.000;9.194;2023-08-06T06:00:34;7.10;;;3.53;;
5475;SDS011;2760;50.000;9.194;2023-08-06T06:03:02;3.07;;;2.77;;
5475;SDS011;2760;50.000;9.194;2023-08-06T06:05:29;6.80;;;2.93;;
5475;SDS011;2760;50.000;9.194;2023-08-06T06:07:58;3.60;;;2.50;;
5475;SDS011;2760;50.000;9.194;2023-08-06T06:10:26;4.57;;;2.20;;
5475;SDS011;2760;50.000;9.194;2023-08-06T06:12:53;4.20;;;2.40;;
5475;SDS011;2760;50.000;9.194;2023-08-06T06:15:20;4.50;;;2.30;;
5475;SDS011;2760;50.000;9.194;2023-08-06T06:17:48;3.43;;;2.20;;
5475;SDS011;2760;50.000;9.194;2023-08-06T06:20:15;2.80;;;2.23;;
5475;SDS011;2760;50.000;9.194;2023-08-06T06:22:42;2.20;;;1.80;;
5475;SDS011;2760;50.000;9.194;2023-08-06T06:25:11;2.17;;;1.87;;
5475;SDS011;2760;50.000;9.194;2023-08-06T06:27:38;1.67;;;1.57;;
5475;SDS011;2760;50.000;9.194;2023-08-06T06:30:06;2.47;;;1.43;;
5475;SDS011;2760;50.000;9.194;2023-08-06T06:32:34;1.87;;;1.77;;
5475;SDS011;2760;50.000;9.194;2023-08-06T06:35:01;3.20;;;2.00;;
5475;SDS011;2760;50.000;9.194;2023-08-06T06:40:12;2.37;;;1.67;;
5475;SDS011;2760;50.000;9.194;2023-08-06T06:42:40;1.60;;;1.50;;
5475;SDS011;2760;50.000;9.194;2023-08-06T06:45:09;1.80;;;1.70;;
5475;SDS011;2760;50.000;9.194;2023-08-06T06:47:36;3.63;;;2.07;;
5475;SDS011;2760;50.000;9.194;2023-08-06T06:50:03;3.00;;;1.80;;
5475;SDS011;2760;50.000;9.194;2023-08-06T06:52:31;1.33;;;1.23;;
5475;SDS011;2760;50.000;9.194;2023-08-06T06:54:58;3.63;;;2.03;;
5475;SDS011;2760;50.000;9.194;2023-08-06T06:57:27;3.40;;;1.20;;
5475;SDS011;2760;50.000;9.194;2023-08-06T06:59:54;3.53;;;1.60;;
5475;SDS011;2760;50.000;9.194;2023-08-06T07:02:21;2.70;;;1.40;;
5475;SDS011;2760;50.000;9.194;2023-08-06T07:04:52;4.20;;;1.30;;
5475;SDS011;2760;50.000;9.194;2023-08-06T07:07:19;1.03;;;0.97;;
5475;SDS011;2760;50.000;9.194;2023-08-06T07:09:46;4.03;;;1.20;;
5475;SDS011;2760;50.000;9.194;2023-08-06T07:12:18;1.10;;;1.00;;
5475;SDS011;2760;50.000;9.194;2023-08-06T07:14:51;1.33;;;1.10;;
5475;SDS011;2760;50.000;9.194;2023-08-06T07:17:18;3.27;;;2.00;;
5475;SDS011;2760;50.000;9.194;2023-08-06T07:19:46;3.40;;;1.73;;
5475;SDS011;2760;50.000;9.194;2023-08-06T07:22:13;2.17;;;1.13;;
5475;SDS011;2760;50.000;9.194;2023-08-06T07:24:40;1.50;;;1.40;;
5475;SDS011;2760;50.000;9.194;2023-08-06T07:27:07;1.87;;;1.50;;
5475;SDS011;2760;50.000;9.194;2023-08-06T07:29:34;2.20;;;1.47;;
5475;SDS011;2760;50.000;9.194;2023-08-06T07:32:04;1.67;;;1.40;;
5475;SDS011;2760;50.000;9.194;2023-08-06T07:34:32;1.17;;;0.90;;
5475;SDS011;2760;50.000;9.194;2023-08-06T07:36:59;1.53;;;1.00;;
5475;SDS011;2760;50.000;9.194;2023-08-06T07:39:27;1.20;;;1.10;;
5475;SDS011;2760;50.000;9.194;2023-08-06T07:41:56;1.70;;;1.00;;
5475;SDS011;2760;50.000;9.194;2023-08-06T07:44:23;1.43;;;1.10;;
5475;SDS011;2760;50.000;9.194;2023-08-06T07:46:51;1.73;;;0.83;;
5475;SDS011;2760;50.000;9.194;2023-08-06T07:49:21;0.80;;;0.70;;
5475;SDS011;2760;50.000;9.194;2023-08-06T07:51:48;2.70;;;1.07;;
5475;SDS011;2760;50.000;9.194;2023-08-06T07:54:16;0.80;;;0.70;;
5475;SDS011;2760;50.000;9.194;2023-08-06T07:56:44;1.20;;;1.10;;
5475;SDS011;2760;50.000;9.194;2023-08-06T07:59:11;1.90;;;0.97;;
5475;SDS011;2760;50.000;9.194;2023-08-06T08:01:38;0.93;;;0.93;;
5475;SDS011;2760;50.000;9.194;2023-08-06T08:04:06;1.93;;;0.77;;
5475;SDS011;2760;50.000;9.194;2023-08-06T08:06:35;2.30;;;0.90;;
5475;SDS011;2760;50.000;9.194;2023-08-06T08:09:02;1.50;;;0.80;;
5475;SDS011;2760;50.000;9.194;2023-08-06T08:11:29;3.60;;;1.20;;
5475;SDS011;2760;50.000;9.194;2023-08-06T08:13:57;0.90;;;0.90;;
5475;SDS011;2760;50.000;9.194;2023-08-06T08:16:34;6.33;;;1.07;;
5475;SDS011;2760;50.000;9.194;2023-08-06T08:19:01;1.07;;;1.00;;
5475;SDS011;2760;50.000;9.194;2023-08-06T08:21:33;2.23;;;0.80;;
5475;SDS011;2760;50.000;9.194;2023-08-06T08:24:03;1.30;;;1.20;;
5475;SDS011;2760;50.000;9.194;2023-08-06T08:26:31;1.60;;;1.10;;
5475;SDS011;2760;50.000;9.194;2023-08-06T08:28:58;1.10;;;1.00;;
5475;SDS011;2760;50.000;9.194;2023-08-06T08:31:26;1.60;;;0.90;;
5475;SDS011;2760;50.000;9.194;2023-08-06T08:33:53;2.47;;;1.33;;
5475;SDS011;2760;50.000;9.194;2023-08-06T08:36:23;3.57;;;1.07;;
5475;SDS011;2760;50.000;9.194;2023-08-06T08:38:53;1.10;;;0.90;;
5475;SDS011;2760;50.000;9.194;2023-08-06T08:41:21;1.20;;;1.10;;
5475;SDS011;2760;50.000;9.194;2023-08-06T08:43:50;3.93;;;1.00;;
5475;SDS011;2760;50.000;9.194;2023-08-06T08:46:19;1.63;;;0.90;;
5475;SDS011;2760;50.000;9.194;2023-08-06T08:48:46;0.90;;;0.90;;
5475;SDS011;2760;50.000;9.194;2023-08-06T08:51:13;1.07;;;0.97;;
5475;SDS011;2760;50.000;9.194;2023-08-06T08:53:45;1.33;;;0.93;;
5475;SDS011;2760;50.000;9.194;2023-08-06T08:56:16;2.20;;;1.20;;
5475;SDS011;2760;50.000;9.194;2023-08-06T08:58:44;1.27;;;1.03;;
5475;SDS011;2760;50.000;9.194;2023-08-06T09:01:11;1.50;;;1.10;;
5475;SDS011;2760;50.000;9.194;2023-08-06T09:03:38;2.37;;;1.13;;
5475;SDS011;2760;50.000;9.194;2023-08-06T09:06:19;1.20;;;0.90;;
5475;SDS011;2760;50.000;9.194;2023-08-06T09:09:02;0.90;;;0.70;;
5475;SDS011;2760;50.000;9.194;2023-08-06T09:14:46;1.30;;;1.00;;
5475;SDS011;2760;50.000;9.194;2023-08-06T09:17:27;2.43;;;1.03;;
5475;SDS011;2760;50.000;9.194;2023-08-06T09:20:10;6.13;;;1.00;;
5475;SDS011;2760;50.000;9.194;2023-08-06T09:22:39;1.53;;;0.80;;
5475;SDS011;2760;50.000;9.194;2023-08-06T09:25:09;1.23;;;1.13;;
5475;SDS011;2760;50.000;9.194;2023-08-06T09:27:46;1.77;;;1.20;;
5475;SDS011;2760;50.000;9.194;2023-08-06T09:30:41;1.40;;;0.83;;
5475;SDS011;2760;50.000;9.194;2023-08-06T09:33:17;0.80;;;0.80;;
5475;SDS011;2760;50.000;9.194;2023-08-06T09:35:45;1.57;;;1.00;;
5475;SDS011;2760;50.000;9.194;2023-08-06T09:38:13;1.97;;;1.17;;
5475;SDS011;2760;50.000;9.194;2023-08-06T09:40:41;2.10;;;1.00;;
5475;SDS011;2760;50.000;9.194;2023-08-06T09:43:08;1.00;;;0.90;;
5475;SDS011;2760;50.000;9.194;2023-08-06T09:45:37;1.50;;;1.10;;
5475;SDS011;2760;50.000;9.194;2023-08-06T09:48:06;1.30;;;1.20;;
5475;SDS011;2760;50.000;9.194;2023-08-06T09:50:36;1.10;;;1.00;;
5475;SDS011;2760;50.000;9.194;2023-08-06T09:53:12;1.03;;;0.80;;
5475;SDS011;2760;50.000;9.194;2023-08-06T09:55:40;0.80;;;0.80;;
5475;SDS011;2760;50.000;9.194;2023-08-06T09:58:08;0.97;;;0.80;;
5475;SDS011;2760;50.000;9.194;2023-08-06T10:00:44;0.90;;;0.80;;
5475;SDS011;2760;50.000;9.194;2023-08-06T10:03:12;0.90;;;0.80;;
5475;SDS011;2760;50.000;9.194;2023-08-06T10:05:42;0.80;;;0.70;;
5475;SDS011;2760;50.000;9.194;2023-08-06T10:08:11;1.50;;;0.90;;
5475;SDS011;2760;50.000;9.194;2023-08-06T10:10:39;1.57;;;0.70;;
5475;SDS011;2760;50.000;9.194;2023-08-06T10:13:08;1.53;;;0.80;;
5475;SDS011;2760;50.000;9.194;2023-08-06T10:15:37;0.70;;;0.70;;
5475;SDS011;2760;50.000;9.194;2023-08-06T10:18:10;1.00;;;0.90;;
5475;SDS011;2760;50.000;9.194;2023-08-06T10:20:39;0.70;;;0.70;;
5475;SDS011;2760;50.000;9.194;2023-08-06T10:23:08;1.10;;;1.00;;
5475;SDS011;2760;50.000;9.194;2023-08-06T10:25:40;0.83;;;0.80;;
5475;SDS011;2760;50.000;9.194;2023-08-06T10:28:17;0.70;;;0.60;;
5475;SDS011;2760;50.000;9.194;2023-08-06T10:31:08;1.20;;;0.70;;
5475;SDS011;2760;50.000;9.194;2023-08-06T10:33:42;0.90;;;0.80;;
5475;SDS011;2760;50.000;9.194;2023-08-06T10:36:12;1.10;;;0.90;;
5475;SDS011;2760;50.000;9.194;2023-08-06T10:38:44;0.80;;;0.67;;
5475;SDS011;2760;50.000;9.194;2023-08-06T10:41:14;1.90;;;1.07;;
5475;SDS011;2760;50.000;9.194;2023-08-06T10:43:43;0.90;;;0.80;;
5475;SDS011;2760;50.000;9.194;2023-08-06T10:46:26;0.70;;;0.60;;
5475;SDS011;2760;50.000;9.194;2023-08-06T10:48:54;0.70;;;0.70;;
5475;SDS011;2760;50.000;9.194;2023-08-06T10:51:22;0.70;;;0.60;;
5475;SDS011;2760;50.000;9.194;2023-08-06T10:53:52;0.80;;;0.70;;
5475;SDS011;2760;50.000;9.194;2023-08-06T10:56:39;0.80;;;0.70;;
5475;SDS011;2760;50.000;9.194;2023-08-06T10:59:24;0.80;;;0.60;;
5475;SDS011;2760;50.000;9.194;2023-08-06T11:05:14;0.73;;;0.70;;
5475;SDS011;2760;50.000;9.194;2023-08-06T11:08:07;1.00;;;0.70;;
5475;SDS011;2760;50.000;9.194;2023-08-06T11:11:12;1.40;;;0.70;;
5475;SDS011;2760;50.000;9.194;2023-08-06T11:13:56;5.70;;;1.27;;
5475;SDS011;2760;50.000;9.194;2023-08-06T11:16:24;2.20;;;1.63;;
5475;SDS011;2760;50.000;9.194;2023-08-06T11:22:12;1.93;;;1.10;;
5475;SDS011;2760;50.000;9.194;2023-08-06T11:24:46;2.03;;;0.97;;
5475;SDS011;2760;50.000;9.194;2023-08-06T11:28:36;1.30;;;1.03;;
5475;SDS011;2760;50.000;9.194;2023-08-06T11:31:20;2.10;;;1.00;;
5475;SDS011;2760;50.000;9.194;2023-08-06T11:34:03;0.97;;;0.80;;
5475;SDS011;2760;50.000;9.194;2023-08-06T11:46:30;1.70;;;1.13;;
5475;SDS011;2760;50.000;9.194;2023-08-06T11:49:38;1.97;;;0.90;;
5475;SDS011;2760;50.000;9.194;2023-08-06T11:52:22;0.80;;;0.80;;
5475;SDS011;2760;50.000;9.194;2023-08-06T11:55:04;2.23;;;0.93;;
5475;SDS011;2760;50.000;9.194;2023-08-06T11:57:46;1.20;;;0.80;;
5475;SDS011;2760;50.000;9.194;2023-08-06T12:00:27;3.23;;;1.00;;
5475;SDS011;2760;50.000;9.194;2023-08-06T12:03:12;1.40;;;1.00;;
5475;SDS011;2760;50.000;9.194;2023-08-06T12:05:39;0.90;;;0.80;;
5475;SDS011;2760;50.000;9.194;2023-08-06T12:08:25;1.10;;;0.80;;
5475;SDS011;2760;50.000;9.194;2023-08-06T12:10:54;0.80;;;0.80;;
5475;SDS011;2760;50.000;9.194;2023-08-06T12:13:37;0.83;;;0.70;;
5475;SDS011;2760;50.000;9.194;2023-08-06T12:16:05;3.07;;;0.97;;
5475;SDS011;2760;50.000;9.194;2023-08-06T12:18:38;1.63;;;0.90;;
5475;SDS011;2760;50.000;9.194;2023-08-06T12:21:05;1.27;;;0.87;;
5475;SDS011;2760;50.000;9.194;2023-08-06T12:23:33;0.90;;;0.90;;
5475;SDS011;2760;50.000;9.194;2023-08-06T12:26:15;2.40;;;0.97;;
5475;SDS011;2760;50.000;9.194;2023-08-06T12:28:43;0.70;;;0.60;;
5475;SDS011;2760;50.000;9.194;2023-08-06T12:31:11;1.20;;;0.70;;
5475;SDS011;2760;50.000;9.194;2023-08-06T12:33:44;0.70;;;0.70;;
5475;SDS011;2760;50.000;9.194;2023-08-06T12:36:12;1.10;;;0.70;;
5475;SDS011;2760;50.000;9.194;2023-08-06T12:38:39;1.33;;;0.70;;
5475;SDS011;2760;50.000;9.194;2023-08-06T12:41:07;2.07;;;0.70;;
5475;SDS011;2760;50.000;9.194;2023-08-06T12:43:34;1.77;;;0.90;;
5475;SDS011;2760;50.000;9.194;2023-08-06T12:46:10;1.47;;;1.00;;
5475;SDS011;2760;50.000;9.194;2023-08-06T12:48:40;1.90;;;0.70;;
5475;SDS011;2760;50.000;9.194;2023-08-06T12:51:07;1.43;;;1.00;;
5475;SDS011;2760;50.000;9.194;2023-08-06T12:53:35;1.10;;;0.70;;
5475;SDS011;2760;50.000;9.194;2023-08-06T12:56:03;2.70;;;0.80;;
5475;SDS011;2760;50.000;9.194;2023-08-06T12:58:32;4.10;;;0.70;;
5475;SDS011;2760;50.000;9.194;2023-08-06T13:01:20;3.50;;;0.90;;
5475;SDS011;2760;50.000;9.194;2023-08-06T13:03:49;0.70;;;0.60;;
5475;SDS011;2760;50.000;9.194;2023-08-06T13:06:16;0.83;;;0.83;;
5475;SDS011;2760;50.000;9.194;2023-08-06T13:08:58;1.57;;;0.90;;
5475;SDS011;2760;50.000;9.194;2023-08-06T13:11:25;1.47;;;0.90;;
5475;SDS011;2760;50.000;9.194;2023-08-06T13:13:54;2.13;;;0.80;;
5475;SDS011;2760;50.000;9.194;2023-08-06T13:16:35;0.83;;;0.80;;
5475;SDS011;2760;50.000;9.194;2023-08-06T13:22:07;2.93;;;1.10;;
5475;SDS011;2760;50.000;9.194;2023-08-06T13:24:35;0.70;;;0.60;;
5475;SDS011;2760;50.000;9.194;2023-08-06T13:27:03;4.43;;;1.10;;
5475;SDS011;2760;50.000;9.194;2023-08-06T13:29:45;3.87;;;0.93;;
5475;SDS011;2760;50.000;9.194;2023-08-06T13:32:26;4.77;;;1.20;;
5475;SDS011;2760;50.000;9.194;2023-08-06T13:34:54;3.93;;;1.40;;
5475;SDS011;2760;50.000;9.194;2023-08-06T13:40:07;4.63;;;0.97;;
5475;SDS011;2760;50.000;9.194;2023-08-06T13:42:34;1.43;;;1.33;;
5475;SDS011;2760;50.000;9.194;2023-08-06T13:45:02;1.63;;;1.20;;
5475;SDS011;2760;50.000;9.194;2023-08-06T13:47:38;3.60;;;1.10;;
5475;SDS011;2760;50.000;9.194;2023-08-06T13:50:08;1.30;;;1.10;;
5475;SDS011;2760;50.000;9.194;2023-08-06T13:52:51;2.27;;;1.40;;
5475;SDS011;2760;50.000;9.194;2023-08-06T13:55:21;2.70;;;1.10;;
5475;SDS011;2760;50.000;9.194;2023-08-06T13:57:49;1.20;;;1.10;;
5475;SDS011;2760;50.000;9.194;2023-08-06T14:00:16;2.80;;;1.10;;
5475;SDS011;2760;50.000;9.194;2023-08-06T14:02:45;1.10;;;1.00;;
5475;SDS011;2760;50.000;9.194;2023-08-06T14:05:13;1.53;;;1.20;;
5475;SDS011;2760;50.000;9.194;2023-08-06T14:11:08;1.10;;;0.97;;
5475;SDS011;2760;50.000;9.194;2023-08-06T14:13:45;2.80;;;0.93;;
5475;SDS011;2760;50.000;9.194;2023-08-06T14:16:13;2.10;;;0.97;;
5475;SDS011;2760;50.000;9.194;2023-08-06T14:18:54;1.83;;;1.03;;
5475;SDS011;2760;50.000;9.194;2023-08-06T14:21:22;1.70;;;1.60;;
5475;SDS011;2760;50.000;9.194;2023-08-06T14:23:53;3.90;;;1.40;;
5475;SDS011;2760;50.000;9.194;2023-08-06T14:26:39;1.47;;;1.37;;
5475;SDS011;2760;50.000;9.194;2023-08-06T14:29:21;3.53;;;1.50;;
5475;SDS011;2760;50.000;9.194;2023-08-06T14:32:02;1.27;;;1.00;;
5475;SDS011;2760;50.000;9.194;2023-08-06T14:34:43;7.70;;;1.77;;
5475;SDS011;2760;50.000;9.194;2023-08-06T14:37:26;4.30;;;1.37;;
5475;SDS011;2760;50.000;9.194;2023-08-06T14:47:23;1.53;;;1.30;;
5475;SDS011;2760;50.000;9.194;2023-08-06T14:49:52;4.37;;;1.50;;
5475;SDS011;2760;50.000;9.194;2023-08-06T14:52:21;3.63;;;1.47;;
5475;SDS011;2760;50.000;9.194;2023-08-06T14:55:02;2.90;;;1.60;;
5475;SDS011;2760;50.000;9.194;2023-08-06T14:57:43;1.83;;;1.10;;
5475;SDS011;2760;50.000;9.194;2023-08-06T15:00:34;1.83;;;1.00;;
5475;SDS011;2760;50.000;9.194;2023-08-06T15:03:15;2.30;;;1.30;;
5475;SDS011;2760;50.000;9.194;2023-08-06T15:05:43;1.43;;;1.30;;
5475;SDS011;2760;50.000;9.194;2023-08-06T15:08:24;2.27;;;1.37;;
5475;SDS011;2760;50.000;9.194;2023-08-06T15:10:52;3.10;;;1.60;;
5475;SDS011;2760;50.000;9.194;2023-08-06T15:13:33;2.70;;;1.43;;
5475;SDS011;2760;50.000;9.194;2023-08-06T15:19:11;5.00;;;1.40;;
5475;SDS011;2760;50.000;9.194;2023-08-06T15:25:32;1.33;;;1.10;;
5475;SDS011;2760;50.000;9.194;2023-08-06T15:27:59;1.70;;;1.43;;
5475;SDS011;2760;50.000;9.194;2023-08-06T15:30:27;2.00;;;1.50;;
5475;SDS011;2760;50.000;9.194;2023-08-06T15:33:02;5.03;;;2.10;;
5475;SDS011;2760;50.000;9.194;2023-08-06T15:35:43;1.50;;;1.30;;
5475;SDS011;2760;50.000;9.194;2023-08-06T15:38:24;1.80;;;1.30;;
5475;SDS011;2760;50.000;9.194;2023-08-06T15:48:05;1.27;;;1.17;;
5475;SDS011;2760;50.000;9.194;2023-08-06T15:50:34;3.90;;;1.87;;
5475;SDS011;2760;50.000;9.194;2023-08-06T15:53:17;2.53;;;1.40;;
5475;SDS011;2760;50.000;9.194;2023-08-06T15:55:58;1.67;;;1.30;;
5475;SDS011;2760;50.000;9.194;2023-08-06T15:58:39;4.37;;;1.50;;
5475;SDS011;2760;50.000;9.194;2023-08-06T16:01:20;1.33;;;1.10;;
5475;SDS011;2760;50.000;9.194;2023-08-06T16:03:51;3.30;;;1.00;;
5475;SDS011;2760;50.000;9.194;2023-08-06T16:06:32;1.17;;;1.07;;
5475;SDS011;2760;50.000;9.194;2023-08-06T16:09:00;2.03;;;1.00;;
5475;SDS011;2760;50.000;9.194;2023-08-06T16:11:41;3.13;;;0.97;;
5475;SDS011;2760;50.000;9.194;2023-08-06T16:14:22;1.10;;;0.90;;
5475;SDS011;2760;50.000;9.194;2023-08-06T16:16:49;2.17;;;1.43;;
5475;SDS011;2760;50.000;9.194;2023-08-06T16:25:40;7.63;;;1.10;;
5475;SDS011;2760;50.000;9.194;2023-08-06T16:28:13;1.20;;;1.10;;
5475;SDS011;2760;50.000;9.194;2023-08-06T16:30:45;1.73;;;1.20;;
5475;SDS011;2760;50.000;9.194;2023-08-06T16:33:12;1.40;;;1.30;;
5475;SDS011;2760;50.000;9.194;2023-08-06T16:35:42;4.43;;;1.10;;
5475;SDS011;2760;50.000;9.194;2023-08-06T16:38:09;1.37;;;1.27;;
5475;SDS011;2760;50.000;9.194;2023-08-06T16:40:39;1.77;;;1.50;;
5475;SDS011;2760;50.000;9.194;2023-08-06T16:43:06;2.20;;;1.57;;
5475;SDS011;2760;50.000;9.194;2023-08-06T16:45:36;4.00;;;1.53;;
5475;SDS011;2760;50.000;9.194;2023-08-06T16:48:04;2.27;;;1.53;;
5475;SDS011;2760;50.000;9.194;2023-08-06T16:50:31;2.83;;;1.23;;